Time;durP1;ratioP1;P1;durP2;ratioP2;P2;SDS_P1;SDS_P2;PMS_P1;PMS_P2;Temp;Humidity;BMP_temperature;BMP_pressure;BME280_temperature;BME280_humidity;BME280_pressure;Samples;Min_cycle;Max_cycle;Signal;HPM_P1;HPM_P2
2021/12/27 00:01:55;;;;;;;14.65;7.50;;;;;;;-3.45;85.20;100067.88;5029736;28;20106;-85
2021/12/27 00:04:21;;;;;;;12.77;7.97;;;;;;;-3.49;85.20;100073.72;5034224;28;20041;-85
2021/12/27 00:06:50;;;;;;;14.10;7.72;;;;;;;-3.52;85.52;100074.47;5029411;28;20037;-86
2021/12/27 00:09:16;;;;;;;12.38;7.07;;;;;;;-3.48;85.99;100075.47;5048975;28;20041;-85
2021/12/27 00:11:44;;;;;;;10.02;7.18;;;;;;;-3.46;84.92;100070.41;5020999;28;20460;-86
2021/12/27 00:14:10;;;;;;;12.02;8.07;;;;;;;-3.46;85.01;100076.38;5033936;28;20056;-84
2021/12/27 00:16:37;;;;;;;11.93;7.50;;;;;;;-3.44;85.15;100061.97;5031193;28;20033;-85
2021/12/27 00:19:04;;;;;;;12.90;6.63;;;;;;;-3.43;85.02;100061.13;5045071;28;20048;-86
2021/12/27 00:21:31;;;;;;;11.50;6.88;;;;;;;-3.45;85.19;100057.66;5031662;28;20050;-85
2021/12/27 00:23:57;;;;;;;12.73;8.07;;;;;;;-3.44;85.52;100055.94;5037112;28;20076;-85
2021/12/27 00:26:24;;;;;;;10.30;7.05;;;;;;;-3.44;85.48;100061.06;5020399;28;20045;-85
2021/12/27 00:28:51;;;;;;;9.80;7.90;;;;;;;-3.43;86.12;100056.00;5030532;28;20052;-84
2021/12/27 00:31:18;;;;;;;12.23;6.35;;;;;;;-3.44;85.48;100056.84;5042206;28;20083;-85
2021/12/27 00:33:44;;;;;;;15.55;7.63;;;;;;;-3.45;86.58;100042.31;5048893;28;20486;-85
2021/12/27 00:36:11;;;;;;;11.77;8.55;;;;;;;-3.45;86.45;100031.22;5013180;28;20523;-85
2021/12/27 00:38:38;;;;;;;11.10;7.50;;;;;;;-3.46;87.17;100024.34;5050412;28;20049;-85
2021/12/27 00:41:04;;;;;;;15.02;6.93;;;;;;;-3.42;87.31;100018.50;5029988;28;20044;-85
2021/12/27 00:43:31;;;;;;;11.88;7.05;;;;;;;-3.41;87.74;100015.16;5031706;28;20068;-86
2021/12/27 00:45:57;;;;;;;12.93;7.57;;;;;;;-3.42;88.13;100016.81;5030028;28;20049;-85
2021/12/27 00:48:25;;;;;;;15.57;7.45;;;;;;;-3.39;87.96;100024.63;5042061;28;20080;-85
2021/12/27 00:50:51;;;;;;;12.80;8.03;;;;;;;-3.40;89.17;100017.75;5031951;28;20418;-85
2021/12/27 00:53:18;;;;;;;11.98;8.20;;;;;;;-3.39;89.22;100006.72;5015941;28;20130;-85
2021/12/27 00:55:46;;;;;;;16.48;8.20;;;;;;;-3.35;89.59;100007.66;5048561;28;20049;-85
2021/12/27 00:58:13;;;;;;;13.43;8.32;;;;;;;-3.35;89.70;100000.00;5049068;28;20040;-85
2021/12/27 01:00:40;;;;;;;11.65;7.47;;;;;;;-3.33;89.99;100000.94;5012334;28;20059;-85
2021/12/27 01:03:06;;;;;;;11.50;7.83;;;;;;;-3.34;90.44;100006.84;5029545;28;20056;-85
2021/12/27 01:05:33;;;;;;;13.13;8.30;;;;;;;-3.37;90.83;100004.19;5022080;28;20052;-85
2021/12/27 01:08:00;;;;;;;12.10;7.45;;;;;;;-3.39;91.03;100009.28;5018692;28;20044;-85
2021/12/27 01:10:59;;;;;;;14.90;9.25;;;;;;;-3.36;91.62;100000.84;5016105;28;20049;-86
2021/12/27 01:13:39;;;;;;;14.48;8.77;;;;;;;-3.39;92.01;99999.03;5032134;28;20074;-86
2021/12/27 01:16:11;;;;;;;11.93;7.57;;;;;;;-3.39;91.76;100005.81;5030406;28;20100;-85
2021/12/27 01:18:43;;;;;;;12.88;7.60;;;;;;;-3.45;91.98;99992.81;5025461;28;20060;-86
2021/12/27 01:21:10;;;;;;;14.25;8.45;;;;;;;-3.43;92.05;99998.84;5032317;28;20048;-85
2021/12/27 01:23:38;;;;;;;11.52;8.18;;;;;;;-3.46;92.62;99986.81;5047340;28;20546;-85
2021/12/27 01:26:04;;;;;;;15.52;8.32;;;;;;;-3.45;92.51;99975.78;5045877;28;20040;-86
2021/12/27 01:28:31;;;;;;;15.68;9.25;;;;;;;-3.46;92.77;99980.84;5040971;28;20430;-85
2021/12/27 01:30:59;;;;;;;15.13;8.60;;;;;;;-3.43;93.28;99980.94;5017787;28;20056;-85
2021/12/27 01:33:26;;;;;;;15.52;9.25;;;;;;;-3.48;93.11;99973.09;5027955;28;20060;-85
2021/12/27 01:35:56;;;;;;;19.45;8.63;;;;;;;-3.45;93.19;99974.91;5043109;28;20077;-86
2021/12/27 01:38:22;;;;;;;13.98;8.60;;;;;;;-3.43;92.76;99981.78;5029394;28;20098;-85
2021/12/27 01:40:53;;;;;;;14.95;9.15;;;;;;;-3.42;93.01;99978.44;5029065;28;20121;-86
2021/12/27 01:43:26;;;;;;;15.90;8.25;;;;;;;-3.39;93.40;99983.69;5016300;28;20049;-85
2021/12/27 01:46:06;;;;;;;12.95;8.13;;;;;;;-3.39;93.17;99973.44;5027284;28;20036;-85
2021/12/27 01:48:38;;;;;;;15.30;9.20;;;;;;;-3.40;93.32;99981.03;5033478;28;20076;-85
2021/12/27 01:51:12;;;;;;;17.08;8.45;;;;;;;-3.41;93.22;99975.06;5014943;28;20087;-86
2021/12/27 01:53:41;;;;;;;;;;;;;;;-3.38;93.13;99971.75;5007002;28;20588;-86
2021/12/27 01:56:12;;;;;;;13.32;8.13;;;;;;;-3.36;93.46;99976.09;5034162;28;19928;-85
2021/12/27 01:58:39;;;;;;;13.23;8.27;;;;;;;-3.33;93.03;99977.91;5033621;28;20691;-86
2021/12/27 02:01:09;;;;;;;15.05;9.15;;;;;;;-3.26;92.97;99971.31;5027570;28;20107;-86
2021/12/27 02:03:37;;;;;;;18.52;8.30;;;;;;;-3.23;92.92;99968.88;5016748;28;20159;-85
2021/12/27 02:06:06;;;;;;;13.80;8.98;;;;;;;-3.20;92.84;99966.41;5023954;28;20048;-85
2021/12/27 02:08:35;;;;;;;14.48;8.55;;;;;;;-3.22;92.69;99960.34;5014254;28;20063;-85
2021/12/27 02:11:05;;;;;;;12.50;7.90;;;;;;;-3.23;92.64;99959.50;5042185;28;20053;-85
2021/12/27 02:13:33;;;;;;;14.40;8.48;;;;;;;-3.18;92.50;99962.19;5047746;28;20122;-85
2021/12/27 02:16:03;;;;;;;16.98;8.45;;;;;;;-3.16;92.62;99961.44;5019076;28;20043;-85
2021/12/27 02:18:29;;;;;;;13.43;8.02;;;;;;;-3.17;91.84;99964.84;5027233;28;20045;-85
2021/12/27 02:20:56;;;;;;;16.48;8.90;;;;;;;-3.16;91.92;99971.69;5034554;28;20480;-85
2021/12/27 02:23:23;;;;;;;13.95;7.90;;;;;;;-3.17;91.85;99976.75;5015615;28;20041;-86
2021/12/27 02:25:52;;;;;;;16.67;8.93;;;;;;;-3.13;92.39;99968.34;5049240;28;20044;-86
2021/12/27 02:28:21;;;;;;;17.85;9.73;;;;;;;-3.13;91.85;99960.69;5043140;28;20041;-85
2021/12/27 02:30:52;;;;;;;13.95;8.82;;;;;;;-3.09;91.88;99957.44;5014668;28;20224;-85
2021/12/27 02:33:19;;;;;;;15.90;8.95;;;;;;;-3.06;91.48;99954.09;5005845;28;20052;-86
2021/12/27 02:35:52;;;;;;;14.02;8.13;;;;;;;-3.05;91.81;99950.72;5037915;28;20195;-84
2021/12/27 02:38:26;;;;;;;10.93;7.13;;;;;;;-3.07;91.12;99955.78;5022312;28;20051;-85
2021/12/27 02:40:53;;;;;;;15.32;8.20;;;;;;;-3.09;90.60;99944.63;5027224;28;20056;-84
2021/12/27 02:43:31;;;;;;;17.23;8.82;;;;;;;-3.05;91.17;99937.91;5032783;28;20786;-86
2021/12/27 02:46:07;;;;;;;14.15;8.00;;;;;;;-3.04;91.40;99940.53;5038558;28;20048;-86
2021/12/27 02:48:41;;;;;;;14.57;7.40;;;;;;;-3.03;91.35;99944.81;5052234;28;20052;-85
2021/12/27 02:51:09;;;;;;;14.00;7.38;;;;;;;-3.02;90.62;99933.75;5024978;28;20519;-85
2021/12/27 02:53:35;;;;;;;13.52;8.30;;;;;;;-2.98;91.06;99936.44;5047589;28;20131;-85
2021/12/27 02:56:06;;;;;;;13.02;7.95;;;;;;;-2.97;90.35;99935.59;5031519;28;20051;-85
2021/12/27 02:58:34;;;;;;;12.13;7.93;;;;;;;-2.96;90.43;99932.22;5041702;28;20069;-85
2021/12/27 03:01:11;;;;;;;18.85;8.52;;;;;;;-2.98;90.60;99932.19;5020759;28;20138;-85
2021/12/27 03:03:38;;;;;;;15.40;7.93;;;;;;;-2.96;90.12;99932.22;5024113;28;21076;-85
2021/12/27 03:06:07;;;;;;;12.73;8.18;;;;;;;-2.96;90.27;99925.41;5045772;28;20484;-85
2021/12/27 03:08:35;;;;;;;14.68;7.95;;;;;;;-2.97;89.96;99930.47;5006747;28;20076;-86
2021/12/27 03:11:05;;;;;;;21.08;8.90;;;;;;;-2.98;90.40;99928.78;5029979;28;20664;-85
2021/12/27 03:13:36;;;;;;;13.52;7.00;;;;;;;-3.01;90.64;99930.38;5034345;28;20052;-86
2021/12/27 03:16:08;;;;;;;11.95;7.55;;;;;;;-3.06;90.22;99934.47;5017639;28;20506;-86
2021/12/27 03:18:38;;;;;;;18.23;8.40;;;;;;;-3.04;90.79;99929.41;5028583;28;20090;-86
2021/12/27 03:21:07;;;;;;;15.13;8.30;;;;;;;-3.05;90.49;99920.88;5039177;28;20103;-85
2021/12/27 03:23:36;;;;;;;16.40;9.07;;;;;;;-3.06;90.29;99925.94;5020045;28;20464;-85
2021/12/27 03:26:04;;;;;;;17.30;8.98;;;;;;;-3.04;90.76;99919.16;5027804;28;20060;-85
2021/12/27 03:28:32;;;;;;;12.93;7.93;;;;;;;-3.03;91.38;99919.22;5009823;28;20047;-86
2021/12/27 03:30:59;;;;;;;13.55;7.88;;;;;;;-2.98;90.83;99919.38;5049500;28;20140;-86
2021/12/27 03:33:27;;;;;;;15.57;8.52;;;;;;;-2.97;90.84;99913.44;5033876;28;20128;-86
2021/12/27 03:36:01;;;;;;;9.48;6.97;;;;;;;-2.92;90.59;99909.34;5031498;28;20047;-86
2021/12/27 03:38:40;;;;;;;;;;;;;;;-2.90;91.19;99907.69;5050110;28;20129;-86
2021/12/27 03:41:12;;;;;;;16.73;7.78;;;;;;;-2.85;91.26;99905.31;5034125;28;19964;-86
2021/12/27 03:43:39;;;;;;;15.57;8.32;;;;;;;-2.84;90.51;99910.47;5050357;28;20132;-85
2021/12/27 03:46:06;;;;;;;17.23;8.02;;;;;;;-2.84;90.42;99907.91;5026975;28;20364;-85
2021/12/27 03:48:33;;;;;;;12.27;8.38;;;;;;;-2.81;90.95;99896.88;5050175;28;20087;-85
2021/12/27 03:51:01;;;;;;;13.13;8.32;;;;;;;-2.83;90.80;99895.97;5027817;28;20055;-86
2021/12/27 03:53:29;;;;;;;16.40;8.18;;;;;;;-2.84;91.09;99900.22;5035037;28;20036;-85
2021/12/27 03:55:56;;;;;;;18.23;8.63;;;;;;;-2.84;90.71;99896.81;5049400;28;20166;-85
2021/12/27 03:58:26;;;;;;;12.10;8.27;;;;;;;-2.87;91.09;99896.69;5042563;28;20059;-85
2021/12/27 04:01:13;;;;;;;13.68;7.57;;;;;;;-2.87;91.49;99886.44;5034233;28;20055;-85
2021/12/27 04:03:39;;;;;;;12.90;8.77;;;;;;;-2.93;91.73;99876.88;5044354;28;20333;-85
2021/12/27 04:06:06;;;;;;;16.95;9.13;;;;;;;-2.94;92.50;99877.69;5033137;28;20047;-86
2021/12/27 04:08:33;;;;;;;13.73;9.98;;;;;;;-2.95;92.62;99875.09;5036101;28;20064;-86
2021/12/27 04:10:59;;;;;;;17.42;10.05;;;;;;;-3.01;93.35;99878.31;5028463;28;20478;-86
2021/12/27 04:13:26;;;;;;;15.10;9.85;;;;;;;-3.03;93.89;99877.38;5048501;28;20072;-85
2021/12/27 04:15:53;;;;;;;15.75;9.32;;;;;;;-3.03;93.36;99868.00;5033307;28;20044;-85
2021/12/27 04:18:19;;;;;;;19.52;8.73;;;;;;;-3.01;93.92;99871.50;5030900;28;20048;-86
2021/12/27 04:20:47;;;;;;;15.13;9.50;;;;;;;-2.99;94.58;99879.22;5030770;28;20419;-85
2021/12/27 04:23:14;;;;;;;14.77;8.73;;;;;;;-2.98;94.54;99865.59;5033680;28;20069;-86
2021/12/27 04:25:42;;;;;;;12.50;8.93;;;;;;;-3.03;95.45;99864.59;5035572;28;20045;-85
2021/12/27 04:28:09;;;;;;;17.42;8.88;;;;;;;-3.09;96.45;99869.50;5016623;28;20095;-86
2021/12/27 04:30:36;;;;;;;15.20;9.40;;;;;;;-3.14;96.79;99871.03;5051852;28;20046;-85
2021/12/27 04:33:07;;;;;;;15.30;8.40;;;;;;;-3.13;97.28;99871.06;5050310;28;20609;-85
2021/12/27 04:35:34;;;;;;;18.55;9.93;;;;;;;-3.16;98.08;99865.88;5034803;28;20460;-86
2021/12/27 04:38:01;;;;;;;19.23;10.68;;;;;;;-3.18;99.51;99865.81;5035117;28;20132;-86
2021/12/27 04:40:32;;;;;;;19.25;9.63;;;;;;;-3.17;99.47;99857.31;5015948;28;20086;-85
2021/12/27 04:43:06;;;;;;;17.25;9.18;;;;;;;-3.14;99.02;99854.00;5028788;28;20398;-86
2021/12/27 04:45:33;;;;;;;14.90;9.40;;;;;;;-3.14;99.87;99854.00;5010051;28;20044;-85
2021/12/27 04:48:01;;;;;;;19.45;11.00;;;;;;;-3.11;99.80;99859.22;5016632;28;20071;-86
2021/12/27 04:50:28;;;;;;;22.00;9.73;;;;;;;-3.09;99.79;99851.56;5051012;28;20053;-85
2021/12/27 04:52:55;;;;;;;18.35;11.32;;;;;;;-3.06;100.00;99849.13;5029551;28;21246;-85
2021/12/27 04:55:27;;;;;;;23.88;10.57;;;;;;;-3.06;99.73;99847.44;5015190;28;20041;-85
2021/12/27 04:57:54;;;;;;;19.38;10.30;;;;;;;-3.04;100.00;99844.91;5034813;28;20063;-86
2021/12/27 05:00:22;;;;;;;32.78;11.45;;;;;;;-3.03;100.00;99849.22;5048662;28;20048;-85
2021/12/27 05:02:49;;;;;;;21.05;10.75;;;;;;;-3.01;100.00;99838.22;5036808;28;20052;-85
2021/12/27 05:05:16;;;;;;;13.48;8.95;;;;;;;-2.96;100.00;99837.47;5028433;28;20048;-85
2021/12/27 05:07:44;;;;;;;16.98;9.32;;;;;;;-2.96;100.00;99825.53;5045448;28;20171;-86
2021/12/27 05:10:11;;;;;;;20.45;11.13;;;;;;;-2.95;100.00;99826.44;5008862;28;20080;-85
2021/12/27 05:12:38;;;;;;;17.25;8.93;;;;;;;-2.94;100.00;99828.19;5030396;28;20453;-85
2021/12/27 05:15:06;;;;;;;17.05;10.20;;;;;;;-2.94;100.00;99818.78;5044091;28;20055;-86
2021/12/27 05:17:33;;;;;;;17.60;9.68;;;;;;;-2.92;100.00;99831.63;5029784;28;20138;-85
2021/12/27 05:20:04;;;;;;;16.73;10.60;;;;;;;-2.93;100.00;99829.88;5045280;28;20075;-86
2021/12/27 05:22:34;;;;;;;19.35;10.85;;;;;;;-2.94;100.00;99831.59;5044857;28;20721;-86
2021/12/27 05:25:04;;;;;;;15.35;10.18;;;;;;;-2.94;100.00;99833.28;5033359;28;20127;-85
2021/12/27 05:27:31;;;;;;;19.42;10.95;;;;;;;-2.90;100.00;99823.19;5016503;28;20510;-85
2021/12/27 05:29:57;;;;;;;19.58;11.00;;;;;;;-2.85;100.00;99820.78;5045805;28;20048;-85
2021/12/27 05:32:24;;;;;;;20.80;10.13;;;;;;;-2.80;100.00;99820.91;5031074;28;20097;-85
2021/12/27 05:34:51;;;;;;;18.60;11.02;;;;;;;-2.80;100.00;99811.56;5010808;28;20048;-85
2021/12/27 05:37:17;;;;;;;20.52;10.13;;;;;;;-2.76;100.00;99809.97;5033495;28;20060;-86
2021/12/27 05:39:44;;;;;;;15.93;9.63;;;;;;;-2.74;100.00;99815.97;5029512;28;20414;-86
2021/12/27 05:42:11;;;;;;;17.05;10.88;;;;;;;-2.74;100.00;99818.53;5013572;28;20224;-85
2021/12/27 05:44:37;;;;;;;19.70;11.18;;;;;;;-2.72;100.00;99809.22;5032525;28;20045;-86
2021/12/27 05:47:04;;;;;;;15.85;11.18;;;;;;;-2.70;100.00;99805.00;5039512;28;20126;-85
2021/12/27 05:49:31;;;;;;;17.73;11.35;;;;;;;-2.69;100.00;99809.31;5049424;28;20131;-85
2021/12/27 05:51:58;;;;;;;17.67;10.63;;;;;;;-2.64;100.00;99820.56;5029706;28;20584;-85
2021/12/27 05:54:25;;;;;;;15.88;9.95;;;;;;;-2.60;100.00;99808.72;5026861;28;20062;-86
2021/12/27 05:56:51;;;;;;;14.93;9.73;;;;;;;-2.59;100.00;99800.22;5032239;28;20055;-86
2021/12/27 05:59:18;;;;;;;16.13;10.63;;;;;;;-2.53;100.00;99797.81;5043017;28;20139;-85
2021/12/27 06:01:46;;;;;;;12.15;9.18;;;;;;;-2.53;100.00;99785.91;5035428;28;20838;-85
2021/12/27 06:04:13;;;;;;;14.45;9.25;;;;;;;-2.52;100.00;99786.75;5046303;28;20049;-85
2021/12/27 06:06:40;;;;;;;20.58;9.35;;;;;;;-2.52;100.00;99786.75;5014458;28;20590;-85
2021/12/27 06:09:07;;;;;;;17.20;9.52;;;;;;;-2.57;100.00;99791.78;5029473;28;20537;-85
2021/12/27 06:11:34;;;;;;;21.35;11.93;;;;;;;-2.58;100.00;99791.69;5025325;28;20048;-85
2021/12/27 06:14:01;;;;;;;18.02;10.30;;;;;;;-2.64;100.00;99797.50;5048190;28;20052;-85
2021/12/27 06:16:28;;;;;;;13.32;9.20;;;;;;;-2.67;100.00;99788.03;5023263;28;20127;-85
2021/12/27 06:18:54;;;;;;;21.42;11.45;;;;;;;-2.70;100.00;99792.19;5013586;28;20044;-85
2021/12/27 06:21:24;;;;;;;16.15;10.48;;;;;;;-2.72;99.85;99788.75;5047762;28;20524;-85
2021/12/27 06:23:51;;;;;;;18.77;10.13;;;;;;;-2.78;100.00;99785.97;5031571;28;20043;-85
2021/12/27 06:26:18;;;;;;;18.88;11.13;;;;;;;-2.82;100.00;99782.44;5030407;28;20041;-85
2021/12/27 06:28:45;;;;;;;25.75;11.50;;;;;;;-2.84;100.00;99776.44;5022838;28;20037;-85
2021/12/27 06:31:12;;;;;;;23.05;11.73;;;;;;;-2.87;100.00;99779.75;5027658;28;20975;-85
2021/12/27 06:33:38;;;;;;;21.48;12.18;;;;;;;-2.88;100.00;99769.44;5025583;28;20048;-85
2021/12/27 06:36:05;;;;;;;17.63;12.02;;;;;;;-2.88;100.00;99772.00;5044435;28;20115;-86
2021/12/27 06:38:32;;;;;;;21.27;11.27;;;;;;;-2.86;100.00;99776.34;5014737;28;20048;-85
2021/12/27 06:41:00;;;;;;;23.73;11.63;;;;;;;-2.81;100.00;99776.50;5032044;28;20105;-85
2021/12/27 06:43:30;;;;;;;15.73;10.35;;;;;;;-2.77;100.00;99772.34;5030478;28;20522;-85
2021/12/27 06:45:58;;;;;;;17.13;10.45;;;;;;;-2.73;100.00;99771.63;5022043;28;20088;-86
2021/12/27 06:48:24;;;;;;;21.95;11.88;;;;;;;-2.66;100.00;99774.41;5027964;28;20049;-85
2021/12/27 06:50:51;;;;;;;18.95;11.57;;;;;;;-2.62;100.00;99762.56;5032634;28;20052;-85
2021/12/27 06:53:18;;;;;;;17.83;11.18;;;;;;;-2.62;100.00;99765.13;5028283;28;20056;-85
2021/12/27 06:55:45;;;;;;;19.70;12.23;;;;;;;-2.57;100.00;99771.28;5026676;28;20052;-85
2021/12/27 06:58:13;;;;;;;13.85;11.07;;;;;;;-2.54;100.00;99773.91;5023720;28;20681;-85
2021/12/27 07:00:41;;;;;;;20.52;10.93;;;;;;;-2.52;100.00;99768.81;5031768;28;20049;-85
2021/12/27 07:03:07;;;;;;;17.10;10.00;;;;;;;-2.53;100.00;99773.09;5029591;28;20049;-85
2021/12/27 07:05:34;;;;;;;19.73;10.23;;;;;;;-2.53;100.00;99773.09;5039484;28;20630;-86
2021/12/27 07:08:01;;;;;;;20.88;11.60;;;;;;;-2.58;100.00;99771.19;5045234;28;20132;-85
2021/12/27 07:10:27;;;;;;;15.82;10.07;;;;;;;-2.61;100.00;99769.41;5025856;28;20069;-85
2021/12/27 07:12:54;;;;;;;21.35;11.60;;;;;;;-2.61;100.00;99764.28;5027702;28;20123;-85
2021/12/27 07:15:21;;;;;;;20.73;10.93;;;;;;;-2.59;100.00;99769.47;5013494;28;20456;-85
2021/12/27 07:17:47;;;;;;;16.48;10.85;;;;;;;-2.61;100.00;99761.72;5011353;28;20423;-85
2021/12/27 07:20:14;;;;;;;17.60;11.77;;;;;;;-2.60;100.00;99760.06;5045857;28;20051;-85
2021/12/27 07:22:41;;;;;;;20.40;10.80;;;;;;;-2.59;100.00;99770.34;5007616;28;20416;-85
2021/12/27 07:25:08;;;;;;;19.65;12.20;;;;;;;-2.53;100.00;99767.09;5028976;28;20044;-86
2021/12/27 07:27:35;;;;;;;19.42;11.35;;;;;;;-2.47;100.00;99776.66;5033058;28;20049;-85
2021/12/27 07:30:05;;;;;;;14.30;9.38;;;;;;;-2.46;100.00;99763.00;5005444;28;20051;-86
2021/12/27 07:32:32;;;;;;;17.73;11.55;;;;;;;-2.47;100.00;99762.13;5011734;28;20071;-85
2021/12/27 07:34:58;;;;;;;19.23;10.80;;;;;;;-2.52;100.00;99761.13;5008767;28;20049;-85
2021/12/27 07:37:25;;;;;;;24.38;11.90;;;;;;;-2.57;100.00;99773.84;5047447;28;20902;-85
2021/12/27 07:39:52;;;;;;;18.85;11.77;;;;;;;-2.58;100.00;99768.63;5008391;28;20192;-86
2021/12/27 07:42:19;;;;;;;19.70;11.35;;;;;;;-2.53;100.00;99769.63;5030842;28;20057;-86
2021/12/27 07:44:46;;;;;;;18.55;11.55;;;;;;;-2.54;100.00;99770.50;5030059;28;20433;-85
2021/12/27 07:47:12;;;;;;;21.35;11.55;;;;;;;-2.53;100.00;99762.84;5024191;28;20041;-85
2021/12/27 07:49:39;;;;;;;19.60;11.93;;;;;;;-2.50;100.00;99762.91;5015074;28;20364;-85
2021/12/27 07:52:08;;;;;;;21.20;12.45;;;;;;;-2.44;100.00;99766.50;5025163;28;20055;-85
2021/12/27 07:54:35;;;;;;;23.75;11.95;;;;;;;-2.39;100.00;99762.38;5042796;28;20060;-85
2021/12/27 07:57:02;;;;;;;18.08;10.63;;;;;;;-2.33;100.00;99765.97;5010606;28;20138;-85
2021/12/27 07:59:28;;;;;;;19.13;11.27;;;;;;;-2.29;100.00;99769.50;5040427;28;20138;-86
2021/12/27 08:01:55;;;;;;;20.98;11.75;;;;;;;-2.23;100.00;99766.22;5027538;28;20129;-85
2021/12/27 08:04:22;;;;;;;19.45;11.57;;;;;;;-2.18;100.00;99768.13;5022076;28;20048;-86
2021/12/27 08:06:49;;;;;;;18.45;11.40;;;;;;;-2.13;100.00;99768.22;5032747;28;20161;-85
2021/12/27 08:09:15;;;;;;;17.05;11.15;;;;;;;-2.08;100.00;99760.69;5046831;28;20431;-86
2021/12/27 08:11:42;;;;;;;19.73;12.38;;;;;;;-2.03;100.00;99761.69;5042492;28;20118;-85
2021/12/27 08:14:09;;;;;;;17.23;11.77;;;;;;;-2.01;100.00;99755.75;5032865;28;20470;-86
2021/12/27 08:16:36;;;;;;;19.27;10.80;;;;;;;-1.94;100.00;99758.47;5013215;28;20053;-85
2021/12/27 08:19:03;;;;;;;19.00;12.05;;;;;;;-1.91;100.00;99766.28;5016589;28;20053;-86
2021/12/27 08:21:31;;;;;;;16.50;11.45;;;;;;;-1.91;100.00;99761.13;5041764;28;20056;-86
2021/12/27 08:23:58;;;;;;;16.48;11.38;;;;;;;-1.98;100.00;99764.34;5017837;28;20123;-86
2021/12/27 08:26:24;;;;;;;18.10;10.80;;;;;;;-1.98;100.00;99769.47;5016751;28;20139;-85
2021/12/27 08:28:55;;;;;;;18.15;12.15;;;;;;;-1.96;100.00;99765.28;5013540;28;20411;-85
2021/12/27 08:31:22;;;;;;;20.83;12.95;;;;;;;-1.91;100.00;99764.56;5034378;28;20053;-86
2021/12/27 08:33:48;;;;;;;20.33;11.65;;;;;;;-1.90;100.00;99768.00;5036482;28;20044;-86
2021/12/27 08:36:16;;;;;;;17.20;11.73;;;;;;;-1.85;100.00;99763.88;5030774;28;20053;-85
2021/12/27 08:38:44;;;;;;;21.73;11.75;;;;;;;-1.79;100.00;99760.59;5011302;28;20040;-85
2021/12/27 08:41:11;;;;;;;17.35;12.35;;;;;;;-1.73;100.00;99753.94;5047769;28;20491;-86
2021/12/27 08:43:38;;;;;;;21.40;11.93;;;;;;;-1.64;100.00;99744.72;5032806;28;20424;-86
2021/12/27 08:46:04;;;;;;;18.58;12.43;;;;;;;-1.54;100.00;99733.84;5035698;28;20056;-87
2021/12/27 08:48:31;;;;;;;18.45;11.57;;;;;;;-1.47;99.99;99732.31;5028204;28;20190;-85
2021/12/27 08:50:58;;;;;;;23.27;13.88;;;;;;;-1.42;100.00;99733.28;5019615;28;20052;-85
2021/12/27 08:53:24;;;;;;;18.08;12.23;;;;;;;-1.38;99.55;99741.13;5045010;28;20072;-86
2021/12/27 08:55:51;;;;;;;18.92;12.00;;;;;;;-1.30;99.87;99740.41;5034651;28;20127;-86
2021/12/27 08:58:18;;;;;;;17.55;12.13;;;;;;;-1.19;99.39;99745.00;5012441;28;20048;-86
2021/12/27 09:00:46;;;;;;;18.42;12.02;;;;;;;-1.10;99.30;99746.06;5033390;28;20130;-86
2021/12/27 09:03:13;;;;;;;20.25;11.90;;;;;;;-0.96;99.00;99743.81;5015653;28;20052;-86
2021/12/27 09:05:41;;;;;;;26.10;13.20;;;;;;;-0.84;98.14;99744.09;5028390;28;20048;-86
2021/12/27 09:08:08;;;;;;;20.15;12.50;;;;;;;-0.72;97.78;99736.66;5033013;28;20040;-86
2021/12/27 09:10:35;;;;;;;18.38;11.32;;;;;;;-0.61;97.36;99736.88;5013633;28;20048;-86
2021/12/27 09:13:03;;;;;;;21.85;13.38;;;;;;;-0.67;96.36;99734.16;5034600;28;20053;-87
2021/12/27 09:15:32;;;;;;;18.63;13.68;;;;;;;-0.61;97.13;99744.59;5016633;28;20118;-86
2021/12/27 09:17:59;;;;;;;23.45;13.63;;;;;;;-0.63;96.31;99740.25;5027650;28;20075;-86
2021/12/27 09:20:27;;;;;;;19.83;12.48;;;;;;;-0.59;96.74;99742.06;5017496;28;20078;-86
2021/12/27 09:22:55;;;;;;;22.48;12.63;;;;;;;-0.64;96.08;99736.78;5029006;28;20479;-86
2021/12/27 09:25:22;;;;;;;23.67;13.40;;;;;;;-0.75;96.61;99733.16;5018230;28;20070;-86
2021/12/27 09:27:51;;;;;;;19.48;12.25;;;;;;;-0.84;97.23;99729.53;5050362;28;20076;-86
2021/12/27 09:30:18;;;;;;;24.35;13.32;;;;;;;-0.88;97.65;99730.28;5026459;28;20059;-86
2021/12/27 09:32:45;;;;;;;28.77;14.13;;;;;;;-0.88;97.95;99732.84;5030583;28;20168;-86
2021/12/27 09:35:12;;;;;;;22.65;13.73;;;;;;;-0.80;98.36;99733.03;5027559;28;20639;-87
2021/12/27 09:37:39;;;;;;;22.80;14.68;;;;;;;-0.73;97.82;99729.78;5030873;28;20041;-86
2021/12/27 09:40:06;;;;;;;23.50;12.52;;;;;;;-0.74;97.52;99729.75;5009683;28;20498;-87
2021/12/27 09:42:35;;;;;;;21.63;11.70;;;;;;;-0.84;97.59;99733.81;5014818;28;20052;-87
2021/12/27 09:45:02;;;;;;;19.73;12.73;;;;;;;-0.83;97.70;99725.25;5031040;28;20574;-86
2021/12/27 09:47:28;;;;;;;23.25;13.52;;;;;;;-0.80;98.43;99727.91;5040958;28;20052;-86
2021/12/27 09:49:55;;;;;;;25.52;14.85;;;;;;;-0.71;98.25;99730.66;5048303;28;20036;-86
2021/12/27 09:52:24;;;;;;;25.58;13.75;;;;;;;-0.58;98.03;99731.78;5015835;28;20072;-86
2021/12/27 09:54:50;;;;;;;23.13;13.43;;;;;;;-0.47;97.70;99734.63;5013126;28;20167;-86
2021/12/27 09:57:17;;;;;;;18.55;10.95;;;;;;;-0.36;96.95;99730.53;5035124;28;20448;-86
2021/12/27 09:59:45;;;;;;;22.35;13.38;;;;;;;-0.32;96.60;99726.34;5026585;28;20099;-86
2021/12/27 10:02:12;;;;;;;21.90;13.07;;;;;;;-0.34;96.33;99726.31;5029281;28;20098;-86
2021/12/27 10:04:45;;;;;;;22.90;12.98;;;;;;;-0.29;96.43;99733.25;5026784;28;20056;-86
2021/12/27 10:07:21;;;;;;;20.83;12.43;;;;;;;-0.25;95.71;99727.31;5026774;28;20048;-86
2021/12/27 10:09:54;;;;;;;24.20;13.98;;;;;;;-0.28;96.23;99727.28;5029615;28;21181;-86
2021/12/27 10:12:26;;;;;;;20.73;14.02;;;;;;;-0.31;95.93;99722.03;5034899;28;20518;-87
2021/12/27 10:15:06;;;;;;;23.45;13.23;;;;;;;-0.37;95.95;99718.50;5031578;28;20052;-86
2021/12/27 10:17:37;;;;;;;23.52;14.55;;;;;;;-0.39;96.68;99709.91;5012652;28;20052;-87
2021/12/27 10:20:25;;;;;;;19.60;14.68;;;;;;;-0.44;97.20;99714.09;5031743;28;20044;-85
2021/12/27 10:22:57;;;;;;;26.52;14.38;;;;;;;-0.44;97.28;99710.63;5031700;28;20045;-87
2021/12/27 10:25:27;;;;;;;25.50;12.23;;;;;;;-0.40;97.17;99713.31;5049339;28;20044;-86
2021/12/27 10:27:58;;;;;;;24.00;13.25;;;;;;;-0.32;97.17;99707.47;5018856;28;20405;-86
2021/12/27 10:30:30;;;;;;;18.52;11.90;;;;;;;-0.25;97.25;99709.31;5043321;28;20179;-86
2021/12/27 10:33:24;;;;;;;22.60;12.75;;;;;;;-0.23;96.57;99705.06;5030371;28;20128;-86
2021/12/27 10:35:59;;;;;;;27.05;15.63;;;;;;;-0.23;97.02;99693.06;5008455;28;20062;-85
2021/12/27 10:38:33;;;;;;;25.50;15.35;;;;;;;-0.26;96.78;99695.59;5035230;28;20074;-86
2021/12/27 10:41:09;;;;;;;21.85;12.75;;;;;;;-0.30;97.37;99693.81;5023630;28;20162;-86
2021/12/27 10:43:44;;;;;;;21.40;13.30;;;;;;;-0.27;96.97;99683.56;5013200;28;20191;-86
2021/12/27 10:46:15;;;;;;;23.48;14.25;;;;;;;-0.24;96.90;99682.75;5029051;28;20048;-86
2021/12/27 10:48:57;;;;;;;19.45;13.30;;;;;;;-0.21;97.47;99675.97;5026080;28;20107;-86
2021/12/27 10:51:25;;;;;;;22.50;15.07;;;;;;;-0.15;97.10;99672.66;5031934;28;20056;-85
2021/12/27 10:53:59;;;;;;;19.88;13.55;;;;;;;-0.11;97.05;99668.44;5022935;28;20446;-86
2021/12/27 10:56:51;;;;;;;19.77;12.07;;;;;;;-0.03;97.35;99664.28;5041388;28;20535;-85
2021/12/27 10:59:20;;;;;;;25.00;13.32;;;;;;;0.06;96.73;99666.16;5030124;28;20044;-86
2021/12/27 11:01:51;;;;;;;22.50;14.00;;;;;;;0.08;96.92;99665.34;5015069;28;20028;-86
2021/12/27 11:04:19;;;;;;;19.88;12.93;;;;;;;0.09;97.13;99659.38;5014115;28;20040;-87
2021/12/27 11:06:54;;;;;;;21.45;12.55;;;;;;;0.12;97.22;99661.97;5024966;28;20045;-86
2021/12/27 11:09:21;;;;;;;22.80;13.43;;;;;;;0.16;96.87;99663.75;5046417;28;20044;-86
2021/12/27 11:11:48;;;;;;;21.88;12.80;;;;;;;0.21;97.29;99661.28;5043399;28;20044;-86
2021/12/27 11:14:15;;;;;;;19.60;13.13;;;;;;;0.28;96.82;99660.53;5047387;28;20148;-86
2021/12/27 11:16:41;;;;;;;26.73;14.77;;;;;;;0.37;97.14;99658.97;5029759;28;20052;-86
2021/12/27 11:19:08;;;;;;;21.20;13.38;;;;;;;0.47;96.59;99659.13;5012563;28;20044;-86
2021/12/27 11:21:41;;;;;;;27.58;15.15;;;;;;;0.57;96.39;99648.97;5017592;28;20044;-86
2021/12/27 11:24:09;;;;;;;20.08;14.13;;;;;;;0.70;96.03;99655.19;5042309;28;20044;-86
2021/12/27 11:26:40;;;;;;;22.33;13.35;;;;;;;0.85;96.03;99654.53;5033157;28;20068;-87